createdAt,value
2016-09-09T00:00:29.860Z,1010.31
2016-09-09T00:01:29.869Z,1010.33
2016-09-09T00:02:29.876Z,1010.33
2016-09-09T00:03:29.884Z,1010.35
2016-09-09T00:04:29.892Z,1010.34
2016-09-09T00:05:29.900Z,1010.37
2016-09-09T00:06:29.908Z,1010.38
2016-09-09T00:07:29.916Z,1010.35
2016-09-09T00:08:29.923Z,1010.38
2016-09-09T00:09:29.931Z,1010.37
2016-09-09T00:10:29.939Z,1010.37
2016-09-09T00:11:29.947Z,1010.38
2016-09-09T00:12:29.956Z,1010.39
2016-09-09T00:13:29.964Z,1010.38
2016-09-09T00:14:29.972Z,1010.39
2016-09-09T00:15:29.978Z,1010.4
2016-09-09T00:16:29.987Z,1010.42
2016-09-09T00:17:29.995Z,1010.4
2016-09-09T00:18:30.002Z,1010.39
2016-09-09T00:19:30.010Z,1010.39
2016-09-09T00:20:30.018Z,1010.37
2016-09-09T00:21:30.025Z,1010.37
2016-09-09T00:22:30.032Z,1010.37
2016-09-09T00:23:31.142Z,1010.39
2016-09-09T00:24:30.055Z,1010.36
2016-09-09T00:25:30.056Z,1010.38
2016-09-09T00:26:30.064Z,1010.39
2016-09-09T00:27:30.073Z,1010.4
2016-09-09T00:28:30.080Z,1010.36
2016-09-09T00:29:30.088Z,1010.39
2016-09-09T00:30:30.095Z,1010.37
2016-09-09T00:31:30.103Z,1010.32
2016-09-09T00:32:30.111Z,1010.4
2016-09-09T00:33:30.119Z,1010.37
2016-09-09T00:34:30.876Z,1010.37
2016-09-09T00:35:30.136Z,1010.43
2016-09-09T00:36:30.143Z,1010.38
2016-09-09T00:37:30.151Z,1010.4
2016-09-09T00:38:30.158Z,1010.38
2016-09-09T00:39:30.166Z,1010.37
2016-09-09T00:40:30.175Z,1010.36
2016-09-09T00:41:30.182Z,1010.37
2016-09-09T00:42:30.240Z,1010.41
2016-09-09T00:43:30.198Z,1010.4
2016-09-09T00:44:30.206Z,1010.42
2016-09-09T00:45:30.613Z,1010.4
2016-09-09T00:46:30.222Z,1010.41
2016-09-09T00:47:30.229Z,1010.41
2016-09-09T00:48:30.236Z,1010.45
2016-09-09T00:49:30.245Z,1010.42
2016-09-09T00:50:30.253Z,1010.42
2016-09-09T00:51:30.260Z,1010.45
2016-09-09T00:52:30.269Z,1010.45
2016-09-09T00:53:30.276Z,1010.44
2016-09-09T00:54:30.283Z,1010.45
2016-09-09T00:55:30.290Z,1010.46
2016-09-09T00:56:30.299Z,1010.45
2016-09-09T00:57:30.307Z,1010.43
2016-09-09T00:58:30.315Z,1010.46
2016-09-09T00:59:30.322Z,1010.46
2016-09-09T01:00:30.331Z,1010.48
2016-09-09T01:01:30.339Z,1010.46
2016-09-09T01:02:30.345Z,1010.46
2016-09-09T01:03:30.355Z,1010.5
2016-09-09T01:04:30.362Z,1010.52
2016-09-09T01:05:30.370Z,1010.54
2016-09-09T01:06:30.378Z,1010.54
2016-09-09T01:07:30.385Z,1010.61
2016-09-09T01:08:30.393Z,1010.58
2016-09-09T01:09:30.401Z,1010.6
2016-09-09T01:10:30.411Z,1010.64
2016-09-09T01:11:30.418Z,1010.64
2016-09-09T01:12:30.426Z,1010.71
2016-09-09T01:13:30.433Z,1010.69
2016-09-09T01:14:30.442Z,1010.71
2016-09-09T01:15:30.449Z,1010.73
2016-09-09T01:16:30.457Z,1010.68
2016-09-09T01:17:30.470Z,1010.76
2016-09-09T01:18:30.474Z,1010.75
2016-09-09T01:19:30.481Z,1010.78
2016-09-09T01:20:30.491Z,1010.76
2016-09-09T01:21:30.497Z,1010.78
2016-09-09T01:22:30.506Z,1010.76
2016-09-09T01:23:30.515Z,1010.8
2016-09-09T01:24:30.521Z,1010.82
2016-09-09T01:25:30.529Z,1010.82
2016-09-09T01:26:30.538Z,1010.85
2016-09-09T01:27:30.544Z,1010.85
2016-09-09T01:28:30.554Z,1010.85
2016-09-09T01:29:30.563Z,1010.83
2016-09-09T01:30:30.569Z,1010.85
2016-09-09T01:31:30.575Z,1010.86
2016-09-09T01:32:30.585Z,1010.83
2016-09-09T01:33:30.643Z,1010.85
2016-09-09T01:34:30.600Z,1010.84
2016-09-09T01:35:30.608Z,1010.88
2016-09-09T01:36:30.615Z,1010.9
2016-09-09T01:37:30.624Z,1010.89
2016-09-09T01:38:30.630Z,1010.85
2016-09-09T01:39:30.638Z,1010.89
2016-09-09T01:40:30.647Z,1010.91
2016-09-09T01:41:30.653Z,1010.92
2016-09-09T01:42:30.663Z,1010.91
2016-09-09T01:43:30.670Z,1010.9
2016-09-09T01:44:30.677Z,1010.9
2016-09-09T01:45:30.685Z,1010.86
2016-09-09T01:46:30.693Z,1010.87
2016-09-09T01:47:30.700Z,1010.86
2016-09-09T01:48:30.708Z,1010.87
2016-09-09T01:49:31.717Z,1010.87
2016-09-09T01:50:30.724Z,1010.93
2016-09-09T01:51:30.732Z,1010.93
2016-09-09T01:52:30.739Z,1010.92
2016-09-09T01:53:30.747Z,1010.9
2016-09-09T01:54:30.754Z,1010.92
2016-09-09T01:55:30.762Z,1010.91
2016-09-09T01:56:30.769Z,1010.94
2016-09-09T01:57:30.777Z,1010.91
2016-09-09T01:58:30.785Z,1010.93
2016-09-09T01:59:30.793Z,1010.95
2016-09-09T02:00:31.549Z,1010.93
2016-09-09T02:01:30.812Z,1011.01
2016-09-09T02:02:30.816Z,1011.02
2016-09-09T02:03:30.823Z,1011.04
2016-09-09T02:04:30.831Z,1011.03
2016-09-09T02:05:30.839Z,1011.05
2016-09-09T02:06:30.847Z,1011.03
2016-09-09T02:07:30.853Z,1011.02
2016-09-09T02:08:30.863Z,1011.07
2016-09-09T02:09:30.870Z,1011.03
2016-09-09T02:10:30.877Z,1011.07
2016-09-09T02:11:31.335Z,1011.07
2016-09-09T02:12:30.899Z,1011.07
2016-09-09T02:13:30.903Z,1011.08
2016-09-09T02:14:30.910Z,1011.09
2016-09-09T02:15:30.916Z,1011.07
2016-09-09T02:16:30.926Z,1011.08
2016-09-09T02:17:30.933Z,1011.02
2016-09-09T02:18:30.940Z,1011.02
2016-09-09T02:19:30.949Z,1010.98
2016-09-09T02:20:30.957Z,1010.97
2016-09-09T02:21:30.965Z,1010.93
2016-09-09T02:22:31.274Z,1010.97
2016-09-09T02:23:30.980Z,1010.96
2016-09-09T02:24:30.988Z,1010.99
2016-09-09T02:25:30.996Z,1010.94
2016-09-09T02:26:31.003Z,1011
2016-09-09T02:27:31.012Z,1010.97
2016-09-09T02:28:31.020Z,1010.99
2016-09-09T02:29:31.027Z,1011.01
2016-09-09T02:30:31.034Z,1011.03
2016-09-09T02:31:31.043Z,1011.01
2016-09-09T02:32:31.050Z,1011.04
2016-09-09T02:33:31.059Z,1011.08
2016-09-09T02:34:31.066Z,1011.12
2016-09-09T02:35:31.075Z,1011.11
2016-09-09T02:36:31.082Z,1011.13
2016-09-09T02:37:31.090Z,1011.12
2016-09-09T02:38:31.153Z,1011.12
2016-09-09T02:39:31.106Z,1011.14
2016-09-09T02:40:31.113Z,1011.14
2016-09-09T02:41:31.122Z,1011.16
2016-09-09T02:42:31.131Z,1011.11
2016-09-09T02:43:31.138Z,1011.12
2016-09-09T02:44:31.146Z,1011.14
2016-09-09T02:45:31.204Z,1011.11
2016-09-09T02:46:31.161Z,1011.12
2016-09-09T02:47:31.167Z,1011.12
2016-09-09T02:48:31.175Z,1011.17
2016-09-09T02:49:31.183Z,1011.17
2016-09-09T02:50:31.191Z,1011.19
2016-09-09T02:51:31.199Z,1011.14
2016-09-09T02:52:31.207Z,1011.19
2016-09-09T02:53:31.215Z,1011.14
2016-09-09T02:54:31.222Z,1011.18
2016-09-09T02:55:31.230Z,1011.16
2016-09-09T02:56:31.237Z,1011.17
2016-09-09T02:57:31.255Z,1011.17
2016-09-09T02:58:31.252Z,1011.18
2016-09-09T02:59:31.262Z,1011.16
2016-09-09T03:00:31.276Z,1011.17
2016-09-09T03:01:31.279Z,1011.15
2016-09-09T03:02:31.282Z,1011.12
2016-09-09T03:03:31.291Z,1011.14
2016-09-09T03:04:31.299Z,1011.17
2016-09-09T03:05:31.307Z,1011.16
2016-09-09T03:06:31.313Z,1011.17
2016-09-09T03:07:31.323Z,1011.18
2016-09-09T03:08:32.282Z,1011.21
2016-09-09T03:09:31.337Z,1011.21
2016-09-09T03:10:31.346Z,1011.17
2016-09-09T03:11:31.353Z,1011.19
2016-09-09T03:12:31.361Z,1011.17
2016-09-09T03:13:31.369Z,1011.2
2016-09-09T03:14:31.377Z,1011.16
2016-09-09T03:15:31.384Z,1011.15
2016-09-09T03:16:31.393Z,1011.1
2016-09-09T03:17:31.400Z,1011.14
2016-09-09T03:18:31.407Z,1011.11
2016-09-09T03:19:32.067Z,1011.08
2016-09-09T03:20:31.423Z,1011.07
2016-09-09T03:21:31.431Z,1011.11
2016-09-09T03:22:31.439Z,1011.11
2016-09-09T03:23:31.447Z,1011.14
2016-09-09T03:24:31.454Z,1011.15
2016-09-09T03:25:31.463Z,1011.15
2016-09-09T03:26:31.470Z,1011.14
2016-09-09T03:27:31.477Z,1011.12
2016-09-09T03:28:31.485Z,1011.13
2016-09-09T03:29:31.493Z,1011.15
2016-09-09T03:30:32.002Z,1011.12
2016-09-09T03:31:31.509Z,1011.07
2016-09-09T03:32:31.518Z,1011.11
2016-09-09T03:33:31.525Z,1011.14
2016-09-09T03:34:31.533Z,1011.12
2016-09-09T03:35:31.540Z,1011.13
2016-09-09T03:36:31.548Z,1011.14
2016-09-09T03:37:31.561Z,1011.14
2016-09-09T03:38:31.563Z,1011.17
2016-09-09T03:39:31.569Z,1011.16
2016-09-09T03:40:31.627Z,1011.17
2016-09-09T03:41:31.987Z,1011.21
2016-09-09T03:42:31.593Z,1011.19
2016-09-09T03:43:31.602Z,1011.18
2016-09-09T03:44:31.609Z,1011.18
2016-09-09T03:45:31.666Z,1011.16
2016-09-09T03:46:31.626Z,1011.2
2016-09-09T03:47:31.632Z,1011.14
2016-09-09T03:48:31.641Z,1011.15
2016-09-09T03:49:31.647Z,1011.17
2016-09-09T03:50:31.657Z,1011.21
2016-09-09T03:51:31.662Z,1011.21
2016-09-09T03:52:31.821Z,1011.23
2016-09-09T03:53:31.677Z,1011.28
2016-09-09T03:54:31.685Z,1011.32
2016-09-09T03:55:31.710Z,1011.31
2016-09-09T03:56:31.702Z,1011.32
2016-09-09T03:57:31.708Z,1011.31
2016-09-09T03:58:31.717Z,1011.32
2016-09-09T03:59:31.726Z,1011.29
2016-09-09T04:00:31.732Z,1011.34
2016-09-09T04:01:31.740Z,1011.32
2016-09-09T04:02:31.747Z,1011.37
2016-09-09T04:03:31.761Z,1011.35
2016-09-09T04:04:31.761Z,1011.33
2016-09-09T04:05:31.772Z,1011.34
2016-09-09T04:06:31.777Z,1011.34
2016-09-09T04:07:31.788Z,1011.35
2016-09-09T04:08:31.792Z,1011.4
2016-09-09T04:09:31.803Z,1011.37
2016-09-09T04:10:31.808Z,1011.36
2016-09-09T04:11:31.816Z,1011.35
2016-09-09T04:12:31.823Z,1011.34
2016-09-09T04:13:31.832Z,1011.38
2016-09-09T04:14:31.890Z,1011.38
2016-09-09T04:15:31.847Z,1011.4
2016-09-09T04:16:31.856Z,1011.44
2016-09-09T04:17:31.862Z,1011.49
2016-09-09T04:18:31.871Z,1011.46
2016-09-09T04:19:31.878Z,1011.47
2016-09-09T04:20:31.887Z,1011.47
2016-09-09T04:21:31.894Z,1011.49
2016-09-09T04:22:31.902Z,1011.48
2016-09-09T04:23:31.911Z,1011.48
2016-09-09T04:24:31.918Z,1011.45
2016-09-09T04:25:31.926Z,1011.44
2016-09-09T04:26:31.945Z,1011.42
2016-09-09T04:27:31.941Z,1011.42
2016-09-09T04:28:31.949Z,1011.4
2016-09-09T04:29:31.956Z,1011.41
2016-09-09T04:30:31.965Z,1011.42
2016-09-09T04:31:31.977Z,1011.44
2016-09-09T04:32:31.979Z,1011.43
2016-09-09T04:33:31.988Z,1011.45
2016-09-09T04:34:32.145Z,1011.44
2016-09-09T04:35:32.003Z,1011.43
2016-09-09T04:36:32.011Z,1011.43
2016-09-09T04:37:32.017Z,1011.46
2016-09-09T04:38:32.126Z,1011.5
2016-09-09T04:39:32.034Z,1011.52
2016-09-09T04:40:32.041Z,1011.5
2016-09-09T04:41:32.048Z,1011.55
2016-09-09T04:42:32.056Z,1011.57
2016-09-09T04:43:32.065Z,1011.55
2016-09-09T04:44:32.072Z,1011.56
2016-09-09T04:45:32.079Z,1011.56
2016-09-09T04:46:32.089Z,1011.56
2016-09-09T04:47:32.147Z,1011.55
2016-09-09T04:48:32.103Z,1011.53
2016-09-09T04:49:32.110Z,1011.54
2016-09-09T04:50:32.119Z,1011.61
2016-09-09T04:51:32.125Z,1011.59
2016-09-09T04:52:32.133Z,1011.61
2016-09-09T04:53:32.141Z,1011.63
2016-09-09T04:54:32.149Z,1011.66
2016-09-09T04:55:32.157Z,1011.7
2016-09-09T04:56:32.164Z,1011.71
2016-09-09T04:57:32.171Z,1011.69
2016-09-09T04:58:32.181Z,1011.79
2016-09-09T04:59:32.187Z,1011.74
2016-09-09T05:00:32.193Z,1011.79
2016-09-09T05:01:32.202Z,1011.84
2016-09-09T05:02:32.210Z,1011.81
2016-09-09T05:03:32.217Z,1011.85
2016-09-09T05:04:32.227Z,1011.79
2016-09-09T05:05:32.234Z,1011.87
2016-09-09T05:06:32.240Z,1011.9
2016-09-09T05:07:32.247Z,1011.87
2016-09-09T05:08:32.256Z,1011.88
2016-09-09T05:09:32.264Z,1011.9
2016-09-09T05:10:32.271Z,1011.9
2016-09-09T05:11:32.279Z,1011.9
2016-09-09T05:12:32.288Z,1011.92
2016-09-09T05:13:32.294Z,1011.91
2016-09-09T05:14:32.301Z,1011.97
2016-09-09T05:15:32.309Z,1011.95
2016-09-09T05:16:32.317Z,1011.96
2016-09-09T05:17:32.325Z,1011.96
2016-09-09T05:18:32.332Z,1012.02
2016-09-09T05:19:32.340Z,1012.05
2016-09-09T05:20:33.449Z,1012.06
2016-09-09T05:21:32.354Z,1012.08
2016-09-09T05:22:32.363Z,1012.08
2016-09-09T05:23:32.370Z,1012.09
2016-09-09T05:24:32.377Z,1012.09
2016-09-09T05:25:32.386Z,1012.1
2016-09-09T05:26:32.394Z,1012.08
2016-09-09T05:27:32.403Z,1012.11
2016-09-09T05:28:32.408Z,1012.09
2016-09-09T05:29:32.415Z,1012.11
2016-09-09T05:30:32.425Z,1012.11
2016-09-09T05:31:33.384Z,1012.12
2016-09-09T05:32:32.438Z,1012.12
2016-09-09T05:33:32.448Z,1012.1
2016-09-09T05:34:32.453Z,1012.15
2016-09-09T05:35:32.462Z,1012.13
2016-09-09T05:36:32.469Z,1012.18
2016-09-09T05:37:32.478Z,1012.21
2016-09-09T05:38:32.486Z,1012.26
2016-09-09T05:39:32.494Z,1012.24
2016-09-09T05:40:32.507Z,1012.27
2016-09-09T05:41:32.560Z,1012.23
2016-09-09T05:42:33.016Z,1012.23
2016-09-09T05:44:32.536Z,1012.25
2016-09-09T05:45:32.540Z,1012.25
2016-09-09T05:46:32.546Z,1012.28
2016-09-09T05:47:32.553Z,1012.26
2016-09-09T05:48:32.567Z,1012.26
2016-09-09T05:49:32.569Z,1012.25
2016-09-09T05:50:32.576Z,1012.26
2016-09-09T05:51:32.635Z,1012.25
2016-09-09T05:52:32.643Z,1012.24
2016-09-09T05:53:32.902Z,1012.24
2016-09-09T05:54:32.609Z,1012.29
2016-09-09T05:55:32.617Z,1012.25
2016-09-09T05:56:32.622Z,1012.23
2016-09-09T05:57:32.632Z,1012.25
2016-09-09T05:58:32.640Z,1012.27
2016-09-09T05:59:32.650Z,1012.29
2016-09-09T06:00:32.656Z,1012.28
2016-09-09T06:01:32.661Z,1012.28
2016-09-09T06:02:32.670Z,1012.27
2016-09-09T06:03:32.677Z,1012.3
2016-09-09T06:04:32.787Z,1012.31
2016-09-09T06:05:32.692Z,1012.35
2016-09-09T06:06:32.702Z,1012.32
2016-09-09T06:07:32.709Z,1012.34
2016-09-09T06:08:32.715Z,1012.35
2016-09-09T06:09:32.724Z,1012.36
2016-09-09T06:10:32.732Z,1012.34
2016-09-09T06:11:32.740Z,1012.38
2016-09-09T06:12:32.747Z,1012.33
2016-09-09T06:13:32.756Z,1012.38
2016-09-09T06:14:32.763Z,1012.36
2016-09-09T06:15:32.770Z,1012.42
2016-09-09T06:16:32.777Z,1012.42
2016-09-09T06:17:32.785Z,1012.46
2016-09-09T06:18:32.792Z,1012.45
2016-09-09T06:19:32.802Z,1012.42
2016-09-09T06:20:32.808Z,1012.47
2016-09-09T06:21:32.816Z,1012.47
2016-09-09T06:22:32.824Z,1012.48
2016-09-09T06:23:32.833Z,1012.49
2016-09-09T06:24:32.840Z,1012.51
2016-09-09T06:25:32.847Z,1012.52
2016-09-09T06:26:32.853Z,1012.52
2016-09-09T06:27:32.862Z,1012.51
2016-09-09T06:28:32.871Z,1012.53
2016-09-09T06:29:32.878Z,1012.54
2016-09-09T06:30:32.884Z,1012.55
2016-09-09T06:31:32.893Z,1012.53
2016-09-09T06:32:32.902Z,1012.53
2016-09-09T06:33:32.905Z,1012.55
2016-09-09T06:34:32.916Z,1012.54
2016-09-09T06:35:32.925Z,1012.52
2016-09-09T06:36:32.931Z,1012.51
2016-09-09T06:37:32.937Z,1012.52
2016-09-09T06:38:32.947Z,1012.56
2016-09-09T06:39:32.954Z,1012.58
2016-09-09T06:40:32.961Z,1012.6
2016-09-09T06:41:32.970Z,1012.62
2016-09-09T06:42:32.977Z,1012.62
2016-09-09T06:44:32.993Z,1012.63
2016-09-09T06:45:32.999Z,1012.64
2016-09-09T06:46:33.008Z,1012.66
2016-09-09T06:47:33.015Z,1012.64
2016-09-09T06:48:33.023Z,1012.65
2016-09-09T06:49:33.032Z,1012.62
2016-09-09T06:50:33.039Z,1012.64
2016-09-09T06:51:33.046Z,1012.65
2016-09-09T06:52:33.052Z,1012.6
2016-09-09T06:53:33.066Z,1012.64
2016-09-09T06:54:33.070Z,1012.6
2016-09-09T06:55:33.076Z,1012.63
2016-09-09T06:56:33.081Z,1012.67
2016-09-09T06:57:33.090Z,1012.66
2016-09-09T06:58:33.097Z,1012.71
2016-09-09T06:59:33.106Z,1012.72
2016-09-09T07:00:33.113Z,1012.73
2016-09-09T07:01:33.120Z,1012.69
2016-09-09T07:02:33.129Z,1012.73
2016-09-09T07:03:33.135Z,1012.68
2016-09-09T07:04:33.144Z,1012.71
2016-09-09T07:05:33.152Z,1012.73
2016-09-09T07:06:33.160Z,1012.74
2016-09-09T07:07:33.166Z,1012.71
2016-09-09T07:08:33.174Z,1012.69
2016-09-09T07:09:33.182Z,1012.7
2016-09-09T07:10:33.189Z,1012.72
2016-09-09T07:11:33.198Z,1012.72
2016-09-09T07:12:33.205Z,1012.77
2016-09-09T07:13:33.219Z,1012.75
2016-09-09T07:14:33.225Z,1012.74
2016-09-09T07:15:33.227Z,1012.76
2016-09-09T07:16:33.236Z,1012.78
2016-09-09T07:17:33.243Z,1012.81
2016-09-09T07:18:33.251Z,1012.84
2016-09-09T07:19:33.259Z,1012.84
2016-09-09T07:20:33.317Z,1012.83
2016-09-09T07:21:33.273Z,1012.84
2016-09-09T07:22:33.280Z,1012.82
2016-09-09T07:23:33.290Z,1012.84
2016-09-09T07:24:33.296Z,1012.83
2016-09-09T07:25:33.305Z,1012.82
2016-09-09T07:26:33.313Z,1012.85
2016-09-09T07:27:33.319Z,1012.86
2016-09-09T07:28:33.327Z,1012.87
2016-09-09T07:29:33.387Z,1012.9
2016-09-09T07:30:33.343Z,1012.94
2016-09-09T07:31:33.350Z,1012.94
2016-09-09T07:32:33.359Z,1012.95
2016-09-09T07:33:33.367Z,1012.95
2016-09-09T07:34:33.373Z,1012.91
2016-09-09T07:35:33.382Z,1012.93
2016-09-09T07:36:33.388Z,1012.94
2016-09-09T07:37:33.396Z,1012.96
2016-09-09T07:38:33.403Z,1012.96
2016-09-09T07:39:33.411Z,1012.96
2016-09-09T07:40:33.418Z,1012.95
2016-09-09T07:41:33.478Z,1012.9
2016-09-09T07:42:33.433Z,1012.87
2016-09-09T07:43:33.441Z,1012.92
2016-09-09T07:44:33.448Z,1012.9
2016-09-09T07:45:33.457Z,1012.98
2016-09-09T07:46:33.464Z,1013.01
2016-09-09T07:47:33.471Z,1013
2016-09-09T07:48:33.480Z,1013
2016-09-09T07:49:33.488Z,1012.98
2016-09-09T07:50:33.496Z,1012.98
2016-09-09T07:51:33.503Z,1012.97
2016-09-09T07:52:33.510Z,1013.03
2016-09-09T07:53:33.518Z,1013.01
2016-09-09T07:54:33.526Z,1013.04
2016-09-09T07:55:33.540Z,1013.05
2016-09-09T07:56:33.542Z,1013.02
2016-09-09T07:57:33.550Z,1013.06
2016-09-09T07:58:33.558Z,1013.02
2016-09-09T07:59:33.565Z,1013.06
2016-09-09T08:00:33.572Z,1013.05
2016-09-09T08:01:33.580Z,1013.05
2016-09-09T08:02:33.588Z,1013.07
2016-09-09T08:03:33.609Z,1013.09
2016-09-09T08:04:33.606Z,1013.07
2016-09-09T08:05:33.614Z,1013.07
2016-09-09T08:06:33.619Z,1013.06
2016-09-09T08:07:33.628Z,1013.07
2016-09-09T08:08:33.637Z,1013.14
2016-09-09T08:09:33.642Z,1013.14
2016-09-09T08:10:33.649Z,1013.17
2016-09-09T08:11:33.655Z,1013.19
2016-09-09T08:12:33.661Z,1013.18
2016-09-09T08:13:33.669Z,1013.19
2016-09-09T08:14:34.792Z,1013.2
2016-09-09T08:15:33.734Z,1013.19
2016-09-09T08:16:33.687Z,1013.19
2016-09-09T08:17:33.695Z,1013.25
2016-09-09T08:18:33.703Z,1013.22
2016-09-09T08:19:33.710Z,1013.18
2016-09-09T08:20:33.716Z,1013.18
2016-09-09T08:21:33.723Z,1013.21
2016-09-09T08:22:33.729Z,1013.21
2016-09-09T08:23:33.735Z,1013.19
2016-09-09T08:24:33.742Z,1013.17
2016-09-09T08:25:34.849Z,1013.2
2016-09-09T08:26:33.767Z,1013.19
2016-09-09T08:27:33.758Z,1013.16
2016-09-09T08:28:33.763Z,1013.22
2016-09-09T08:29:33.769Z,1013.25
2016-09-09T08:30:33.774Z,1013.2
2016-09-09T08:31:33.830Z,1013.25
2016-09-09T08:32:33.797Z,1013.24
2016-09-09T08:33:33.788Z,1013.45
2016-09-09T08:34:33.792Z,1013.26
2016-09-09T08:35:33.799Z,1013.24
2016-09-09T08:36:33.802Z,1013.28
2016-09-09T08:37:33.809Z,1013.75
2016-09-09T08:38:33.816Z,1013.35
2016-09-09T08:39:33.821Z,1013.41
2016-09-09T08:40:33.826Z,1013.44
2016-09-09T08:41:33.833Z,1013.45
2016-09-09T08:42:33.839Z,1013.38
2016-09-09T08:43:33.844Z,1013.44
2016-09-09T08:44:33.851Z,1013.36
2016-09-09T08:45:33.855Z,1013.3
2016-09-09T08:46:33.862Z,1013.34
2016-09-09T08:47:33.869Z,1013.3
2016-09-09T08:48:33.877Z,1013.3
2016-09-09T08:49:33.882Z,1013.31
2016-09-09T08:50:33.888Z,1013.29
2016-09-09T08:51:33.896Z,1013.27
2016-09-09T08:52:33.901Z,1013.28
2016-09-09T08:53:33.905Z,1013.27
2016-09-09T08:54:33.914Z,1013.28
2016-09-09T08:55:33.917Z,1013.25
2016-09-09T08:56:33.920Z,1013.24
2016-09-09T08:57:33.923Z,1013.29
2016-09-09T08:58:35.036Z,1013.29
2016-09-09T08:59:33.933Z,1013.32
2016-09-09T09:00:33.937Z,1013.38
2016-09-09T09:01:33.942Z,1013.36
2016-09-09T09:02:33.948Z,1013.37
2016-09-09T09:03:33.951Z,1013.4
2016-09-09T09:04:33.957Z,1013.41
2016-09-09T09:05:34.009Z,1013.43
2016-09-09T09:06:33.968Z,1013.43
2016-09-09T09:07:33.971Z,1013.46
2016-09-09T09:08:33.977Z,1013.48
2016-09-09T09:09:35.033Z,1013.47
2016-09-09T09:10:33.990Z,1013.46
2016-09-09T09:11:33.995Z,1013.53
2016-09-09T09:12:34.003Z,1013.5
2016-09-09T09:13:34.010Z,1013.48
2016-09-09T09:14:34.015Z,1013.48
2016-09-09T09:15:34.069Z,1013.46
2016-09-09T09:16:34.025Z,1013.47
2016-09-09T09:17:34.032Z,1013.42
2016-09-09T09:18:34.038Z,1013.45
2016-09-09T09:19:34.091Z,1013.46
2016-09-09T09:20:34.948Z,1013.43
2016-09-09T09:21:34.067Z,1013.47
2016-09-09T09:22:34.061Z,1013.4
2016-09-09T09:23:34.066Z,1013.41
2016-09-09T09:24:34.118Z,1013.41
2016-09-09T09:25:34.075Z,1013.39
2016-09-09T09:26:34.081Z,1013.4
2016-09-09T09:27:34.087Z,1013.37
2016-09-09T09:28:34.094Z,1013.38
2016-09-09T09:29:34.099Z,1013.35
2016-09-09T09:30:34.104Z,1013.36
2016-09-09T09:31:34.909Z,1013.34
2016-09-09T09:32:34.116Z,1013.34
2016-09-09T09:33:34.122Z,1013.32
2016-09-09T09:34:34.128Z,1013.34
2016-09-09T09:35:34.133Z,1013.28
2016-09-09T09:36:34.138Z,1013.27
2016-09-09T09:37:34.160Z,1013.27
2016-09-09T09:38:34.153Z,1013.25
2016-09-09T09:39:34.159Z,1013.24
2016-09-09T09:40:34.165Z,1013.21
2016-09-09T09:41:34.170Z,1013.22
2016-09-09T09:42:34.777Z,1013.22
2016-09-09T09:43:34.183Z,1013.2
2016-09-09T09:44:34.191Z,1013.21
2016-09-09T09:45:34.194Z,1013.2
2016-09-09T09:46:34.200Z,1013.23
2016-09-09T09:47:34.205Z,1013.21
2016-09-09T09:48:34.213Z,1013.18
2016-09-09T09:49:34.216Z,1013.22
2016-09-09T09:50:34.223Z,1013.27
2016-09-09T09:51:34.229Z,1013.18
2016-09-09T09:52:34.235Z,1013.22
2016-09-09T09:53:35.042Z,1013.21
2016-09-09T09:54:34.248Z,1013.16
2016-09-09T09:55:34.253Z,1013.17
2016-09-09T09:56:34.260Z,1013.14
2016-09-09T09:57:34.314Z,1013.15
2016-09-09T09:58:34.271Z,1013.13
2016-09-09T09:59:34.277Z,1013.16
2016-09-09T10:00:34.282Z,1013.15
2016-09-09T10:01:34.295Z,1013.15
2016-09-09T10:02:34.295Z,1013.14
2016-09-09T10:03:34.302Z,1013.17
2016-09-09T10:04:35.208Z,1013.11
2016-09-09T10:05:34.321Z,1013.1
2016-09-09T10:06:34.323Z,1013.09
2016-09-09T10:07:34.330Z,1013.07
2016-09-09T10:08:34.336Z,1013.07
2016-09-09T10:09:34.340Z,1013.05
2016-09-09T10:10:34.348Z,1013.05
2016-09-09T10:11:34.355Z,1013.02
2016-09-09T10:12:34.413Z,1013.01
2016-09-09T10:13:34.370Z,1013.03
2016-09-09T10:14:34.377Z,1013.05
2016-09-09T10:15:35.332Z,1013.04
2016-09-09T10:16:34.391Z,1013.02
2016-09-09T10:17:34.397Z,1013.02
2016-09-09T10:18:34.404Z,1013.02
2016-09-09T10:19:34.414Z,1012.99
2016-09-09T10:20:34.416Z,1012.99
2016-09-09T10:21:34.424Z,1012.96
2016-09-09T10:22:34.430Z,1012.91
2016-09-09T10:23:34.435Z,1012.96
2016-09-09T10:24:34.442Z,1012.87
2016-09-09T10:25:34.448Z,1012.93
2016-09-09T10:26:35.404Z,1012.87
2016-09-09T10:27:34.462Z,1012.87
2016-09-09T10:28:34.466Z,1012.93
2016-09-09T10:29:34.522Z,1012.91
2016-09-09T10:30:34.483Z,1012.91
2016-09-09T10:31:34.487Z,1012.89
2016-09-09T10:32:34.490Z,1012.9
2016-09-09T10:33:34.498Z,1012.86
2016-09-09T10:34:34.501Z,1012.86
2016-09-09T10:35:34.507Z,1012.83
2016-09-09T10:36:34.563Z,1012.84
2016-09-09T10:37:35.475Z,1012.84
2016-09-09T10:38:34.526Z,1012.87
2016-09-09T10:39:34.533Z,1012.88
2016-09-09T10:40:34.540Z,1012.88
2016-09-09T10:41:34.558Z,1012.83
2016-09-09T10:42:34.553Z,1012.81
2016-09-09T10:43:34.560Z,1012.82
2016-09-09T10:44:34.566Z,1012.79
2016-09-09T10:45:34.570Z,1012.77
2016-09-09T10:46:34.579Z,1012.75
2016-09-09T10:47:34.585Z,1012.74
2016-09-09T10:48:35.392Z,1012.74
2016-09-09T10:49:34.602Z,1012.69
2016-09-09T10:50:34.606Z,1012.71
2016-09-09T10:51:34.613Z,1012.68
2016-09-09T10:52:34.619Z,1012.68
2016-09-09T10:53:34.625Z,1012.65
2016-09-09T10:54:34.633Z,1012.66
2016-09-09T10:55:34.638Z,1012.63
2016-09-09T10:56:34.646Z,1012.64
2016-09-09T10:57:34.653Z,1012.6
2016-09-09T10:58:34.658Z,1012.59
2016-09-09T10:59:35.364Z,1012.6
2016-09-09T11:00:34.669Z,1012.57
2016-09-09T11:01:34.674Z,1012.62
2016-09-09T11:02:34.680Z,1012.63
2016-09-09T11:03:34.686Z,1012.6
2016-09-09T11:04:34.693Z,1012.62
2016-09-09T11:05:34.700Z,1012.58
2016-09-09T11:06:34.706Z,1012.62
2016-09-09T11:07:34.713Z,1012.64
2016-09-09T11:08:34.718Z,1012.63
2016-09-09T11:09:34.725Z,1012.63
2016-09-09T11:10:35.431Z,1012.63
2016-09-09T11:11:34.738Z,1012.65
2016-09-09T11:12:34.749Z,1012.65
2016-09-09T11:13:34.753Z,1012.64
2016-09-09T11:14:34.759Z,1012.62
2016-09-09T11:15:34.764Z,1012.61
2016-09-09T11:16:34.778Z,1012.63
2016-09-09T11:17:34.776Z,1012.64
2016-09-09T11:18:34.782Z,1012.61
2016-09-09T11:19:34.789Z,1012.63
2016-09-09T11:20:34.794Z,1012.57
2016-09-09T11:21:35.551Z,1012.65
2016-09-09T11:22:34.807Z,1012.65
2016-09-09T11:23:34.813Z,1012.67
2016-09-09T11:24:34.821Z,1012.65
2016-09-09T11:25:34.827Z,1012.62
2016-09-09T11:26:34.833Z,1012.66
2016-09-09T11:27:34.838Z,1012.67
2016-09-09T11:28:34.844Z,1012.67
2016-09-09T11:29:34.852Z,1012.65
2016-09-09T11:30:34.858Z,1012.64
2016-09-09T11:31:34.862Z,1012.65
2016-09-09T11:32:35.971Z,1012.67
2016-09-09T11:33:34.875Z,1012.65
2016-09-09T11:34:34.882Z,1012.59
2016-09-09T11:35:34.886Z,1012.58
2016-09-09T11:36:34.894Z,1012.59
2016-09-09T11:37:34.900Z,1012.58
2016-09-09T11:38:34.907Z,1012.56
2016-09-09T11:39:34.915Z,1012.59
2016-09-09T11:40:34.969Z,1012.58
2016-09-09T11:41:34.925Z,1012.61
2016-09-09T11:42:34.934Z,1012.6
2016-09-09T11:43:36.039Z,1012.61
2016-09-09T11:44:34.945Z,1012.59
2016-09-09T11:45:34.952Z,1012.58
2016-09-09T11:46:34.956Z,1012.58
2016-09-09T11:47:34.964Z,1012.6
2016-09-09T11:48:34.967Z,1012.6
2016-09-09T11:49:34.973Z,1012.6
2016-09-09T11:50:34.980Z,1012.59
2016-09-09T11:51:34.987Z,1012.59
2016-09-09T11:52:34.991Z,1012.6
2016-09-09T11:53:34.997Z,1012.63
2016-09-09T11:54:35.052Z,1012.64
2016-09-09T11:55:35.009Z,1012.63
2016-09-09T11:56:35.013Z,1012.64
2016-09-09T11:57:35.020Z,1012.64
2016-09-09T11:58:35.027Z,1012.64
2016-09-09T11:59:35.032Z,1012.64
2016-09-09T12:00:35.036Z,1012.6
2016-09-09T12:01:35.042Z,1012.57
2016-09-09T12:02:35.050Z,1012.61
2016-09-09T12:03:35.057Z,1012.53
2016-09-09T12:04:35.068Z,1012.61
2016-09-09T12:05:35.066Z,1012.57
2016-09-09T12:06:35.073Z,1012.54
2016-09-09T12:07:35.078Z,1012.54
2016-09-09T12:08:35.086Z,1012.57
2016-09-09T12:09:35.094Z,1012.56